Tell City, Indiana
Current Conditions -  °F | °C
As of 8:35 PM on Wednesday 26 Nov 2014 (Local Time) from KHNB Reporting Station
Clear Clear  
Wind Chill: 28°   Ceiling: Unl
Heat Index: 36°   Visibility: 10mi
Dew Point: 28°   Wind: 10mph
Humidity: 75%   Direction: 30°NNE
Pressure: 30.05"   Gusts: NA
Location:  37.95°N, 86.77°W
Report Text: KHNB 270235Z AUTO 03009KT 10SM CLR 02/M02 A3005 RMK AO1
Loading
Personal Weather Stations






























Interactive Weather Map New forecast layout! Learn more

10-Day Weather Forecast

Advertisements
Track Severe Weather on mobile